createdAt,value
2019-01-09T00:00:37.442Z,91553.05
2019-01-09T00:03:26.682Z,91556.03
2019-01-09T00:06:15.881Z,91556.03
2019-01-09T00:09:08.488Z,91552.01
2019-01-09T00:11:57.908Z,91549.61
2019-01-09T00:14:47.541Z,91553.70
2019-01-09T00:17:36.809Z,91556.90
2019-01-09T00:20:25.953Z,91556.90
2019-01-09T00:23:15.363Z,91546.84
2019-01-09T00:26:04.574Z,91548.34
2019-01-09T00:28:53.803Z,91546.06
2019-01-09T00:31:43.095Z,91559.37
2019-01-09T00:34:32.439Z,91549.41
2019-01-09T00:37:21.036Z,91551.77
2019-01-09T00:40:11.209Z,91551.77
2019-01-09T00:43:00.755Z,91546.97
2019-01-09T00:45:50.022Z,91546.12
2019-01-09T00:48:39.692Z,91545.64
2019-01-09T00:51:29.074Z,91546.09
2019-01-09T00:54:18.257Z,91540.66
2019-01-09T00:57:08.143Z,91540.66
2019-01-09T00:59:57.801Z,91526.12
2019-01-09T01:03:29.428Z,91542.41
2019-01-09T01:06:52.248Z,91561.28
2019-01-09T01:10:18.739Z,91552.16
2019-01-09T01:13:55.433Z,91552.16
2019-01-09T01:17:40.632Z,91518.31
2019-01-09T01:20:44.970Z,91518.31
2019-01-09T01:24:13.239Z,91522.55
2019-01-09T01:27:23.569Z,91518.40
2019-01-09T01:31:21.428Z,91516.05
2019-01-09T01:34:31.481Z,91516.05
2019-01-09T01:38:03.669Z,91520.81
2019-01-09T01:41:11.138Z,91512.77
2019-01-09T01:44:24.046Z,91519.13
2019-01-09T01:47:38.375Z,91517.41
2019-01-09T01:51:16.922Z,91515.36
2019-01-09T01:54:52.236Z,91515.36
2019-01-09T01:58:18.048Z,91515.37
2019-01-09T02:01:30.761Z,91517.19
2019-01-09T02:04:40.470Z,91508.89
2019-01-09T02:08:15.663Z,91508.05
2019-01-09T02:11:27.921Z,91504.15
2019-01-09T02:15:04.507Z,91492.05
2019-01-09T02:18:09.128Z,91495.13
2019-01-09T02:21:29.122Z,91481.09
2019-01-09T02:24:49.934Z,91481.09
2019-01-09T02:28:06.219Z,91485.64
2019-01-09T02:31:31.460Z,91485.64
2019-01-09T02:34:20.322Z,91491.97
2019-01-09T02:37:09.388Z,91491.97
2019-01-09T02:39:59.207Z,91483.25
2019-01-09T02:42:49.403Z,91488.67
2019-01-09T02:45:38.868Z,91484.03
2019-01-09T02:48:27.932Z,91477.14
2019-01-09T02:51:16.764Z,91461.47
2019-01-09T02:54:06.058Z,91458.18
2019-01-09T02:56:54.828Z,91462.82
2019-01-09T02:59:44.337Z,91466.06
2019-01-09T03:02:32.963Z,91457.58
2019-01-09T03:05:22.249Z,91456.51
2019-01-09T03:08:11.178Z,91464.73
2019-01-09T03:11:00.206Z,91469.17
2019-01-09T03:13:49.337Z,91468.30
2019-01-09T03:16:38.950Z,91454.26
2019-01-09T03:19:28.517Z,91446.72
2019-01-09T03:22:17.787Z,91449.37
2019-01-09T03:25:07.327Z,91446.42
2019-01-09T03:27:56.901Z,91442.19
2019-01-09T03:30:46.060Z,91444.36
2019-01-09T03:33:35.452Z,91436.16
2019-01-09T03:36:32.639Z,91433.64
2019-01-09T03:39:14.877Z,91440.37
2019-01-09T03:42:04.220Z,91451.27
2019-01-09T03:44:53.376Z,91447.72
2019-01-09T03:47:42.798Z,91447.44
2019-01-09T03:50:31.469Z,91442.96
2019-01-09T03:53:20.956Z,91443.23
2019-01-09T03:56:10.241Z,91435.39
2019-01-09T03:59:02.432Z,91434.14
2019-01-09T04:01:52.080Z,91426.95
2019-01-09T04:04:41.434Z,91422.86
2019-01-09T04:07:30.794Z,91417.31
2019-01-09T04:10:20.168Z,91414.64
2019-01-09T04:13:09.418Z,91411.09
2019-01-09T04:15:58.970Z,91391.49
2019-01-09T04:18:48.263Z,91391.49
2019-01-09T04:21:37.845Z,91383.47
2019-01-09T04:24:27.399Z,91385.52
2019-01-09T04:27:17.156Z,91384.64
2019-01-09T04:30:07.151Z,91382.14
2019-01-09T04:32:56.517Z,91382.03
2019-01-09T04:35:45.835Z,91380.97
2019-01-09T04:38:35.917Z,91380.56
2019-01-09T04:41:25.153Z,91388.79
2019-01-09T04:44:14.014Z,91393.38
2019-01-09T04:47:04.549Z,91394.45
2019-01-09T04:49:54.227Z,91401.42
2019-01-09T04:52:43.649Z,91402.69
2019-01-09T04:55:32.967Z,91391.11
2019-01-09T04:58:22.244Z,91383.38
2019-01-09T05:01:11.822Z,91379.92
2019-01-09T05:04:01.151Z,91373.56
2019-01-09T05:06:51.064Z,91375.81
2019-01-09T05:09:43.606Z,91362.84
2019-01-09T05:12:32.966Z,91368.33
2019-01-09T05:15:22.124Z,91363.27
2019-01-09T05:18:11.428Z,91364.50
2019-01-09T05:21:00.729Z,91384.80
2019-01-09T05:23:49.940Z,91373.19
2019-01-09T05:26:39.212Z,91373.64
2019-01-09T05:29:28.398Z,91367.01
2019-01-09T05:32:18.180Z,91359.35
2019-01-09T05:35:07.348Z,91353.31
2019-01-09T05:37:56.656Z,91353.31
2019-01-09T05:40:46.277Z,91348.12
2019-01-09T05:43:35.523Z,91355.23
2019-01-09T05:46:24.929Z,91353.42
2019-01-09T05:49:13.880Z,91353.42
2019-01-09T05:52:03.056Z,91351.53
2019-01-09T05:54:52.467Z,91351.53
2019-01-09T05:57:41.752Z,91357.13
2019-01-09T06:00:31.102Z,91353.84
2019-01-09T06:03:20.224Z,91352.30
2019-01-09T06:06:09.647Z,91358.19
2019-01-09T06:08:58.922Z,91358.19
2019-01-09T06:11:48.523Z,91367.16
2019-01-09T06:14:37.282Z,91364.66
2019-01-09T06:17:26.552Z,91364.66
2019-01-09T06:20:15.761Z,91372.52
2019-01-09T06:23:05.148Z,91377.42
2019-01-09T06:25:54.432Z,91386.18
2019-01-09T06:28:43.939Z,91367.67
2019-01-09T06:31:33.533Z,91394.96
2019-01-09T06:34:22.324Z,91389.36
2019-01-09T06:37:11.943Z,91386.06
2019-01-09T06:40:01.805Z,91384.73
2019-01-09T06:42:51.138Z,91398.98
2019-01-09T06:45:40.410Z,91398.98
2019-01-09T06:48:29.908Z,91386.61
2019-01-09T06:51:20.128Z,91389.63
2019-01-09T06:54:09.706Z,91392.94
2019-01-09T06:56:59.034Z,91384.52
2019-01-09T06:59:48.380Z,91384.30
2019-01-09T07:02:37.751Z,91384.30
2019-01-09T07:05:27.297Z,91393.23
2019-01-09T07:08:16.595Z,91391.50
2019-01-09T07:11:06.036Z,91392.34
2019-01-09T07:13:55.722Z,91401.16
2019-01-09T07:16:45.493Z,91382.45
2019-01-09T07:19:34.865Z,91385.00
2019-01-09T07:22:24.450Z,91372.23
2019-01-09T07:25:13.789Z,91379.59
2019-01-09T07:28:03.455Z,91377.08
2019-01-09T07:30:52.685Z,91374.31
2019-01-09T07:33:41.686Z,91373.91
2019-01-09T07:36:30.836Z,91374.99
2019-01-09T07:39:20.141Z,91382.57
2019-01-09T07:42:09.501Z,91387.03
2019-01-09T07:44:59.164Z,91375.75
2019-01-09T07:47:48.497Z,91376.05
2019-01-09T07:50:37.783Z,91381.86
2019-01-09T07:53:28.343Z,91376.72
2019-01-09T07:56:17.424Z,91370.70
2019-01-09T07:59:06.846Z,91364.87
2019-01-09T08:01:55.522Z,91369.83
2019-01-09T08:04:44.827Z,91368.47
2019-01-09T08:07:33.897Z,91370.11
2019-01-09T08:10:23.152Z,91366.37
2019-01-09T08:13:12.495Z,91362.25
2019-01-09T08:16:02.337Z,91366.34
2019-01-09T08:18:51.707Z,91364.98
2019-01-09T08:21:41.127Z,91366.05
2019-01-09T08:24:30.352Z,91368.27
2019-01-09T08:27:19.380Z,91370.15
2019-01-09T08:30:10.233Z,91370.15
2019-01-09T08:32:59.475Z,91363.20
2019-01-09T08:35:48.446Z,91374.09
2019-01-09T08:38:37.740Z,91361.97
2019-01-09T08:41:27.496Z,91373.89
2019-01-09T08:44:16.313Z,91373.89
2019-01-09T08:47:05.240Z,91371.25
2019-01-09T08:49:54.448Z,91366.50
2019-01-09T08:52:44.091Z,91362.77
2019-01-09T08:55:33.836Z,91367.38
2019-01-09T08:58:22.857Z,91366.48
2019-01-09T09:01:12.175Z,91366.02
2019-01-09T09:04:01.729Z,91363.03
2019-01-09T09:06:51.054Z,91368.14
2019-01-09T09:09:40.025Z,91374.84
2019-01-09T09:12:29.347Z,91371.00
2019-01-09T09:15:18.670Z,91367.53
2019-01-09T09:18:08.010Z,91369.55
2019-01-09T09:20:57.380Z,91355.53
2019-01-09T09:23:46.712Z,91361.78
2019-01-09T09:26:35.641Z,91356.15
2019-01-09T09:29:25.008Z,91344.23
2019-01-09T09:32:14.338Z,91348.30
2019-01-09T09:35:03.756Z,91344.72
2019-01-09T09:37:53.504Z,91343.08
2019-01-09T09:40:42.875Z,91338.99
2019-01-09T09:43:32.279Z,91340.28
2019-01-09T09:46:21.502Z,91332.33
2019-01-09T09:49:10.528Z,91338.73
2019-01-09T09:51:59.803Z,91335.87
2019-01-09T09:54:49.232Z,91339.22
2019-01-09T09:57:39.922Z,91338.58
2019-01-09T10:00:29.040Z,91336.00
2019-01-09T10:03:17.803Z,91330.77
2019-01-09T10:06:07.175Z,91332.11
2019-01-09T10:08:56.455Z,91328.88
2019-01-09T10:11:45.505Z,91321.56
2019-01-09T10:14:34.945Z,91311.77
2019-01-09T10:17:24.446Z,91317.66
2019-01-09T10:20:15.481Z,91310.27
2019-01-09T10:23:04.756Z,91309.91
2019-01-09T10:25:54.271Z,91309.72
2019-01-09T10:28:43.856Z,91302.32
2019-01-09T10:31:33.473Z,91300.12
2019-01-09T10:34:23.082Z,91304.42
2019-01-09T10:37:12.328Z,91297.52
2019-01-09T10:40:01.939Z,91290.92
2019-01-09T10:42:51.497Z,91287.99
2019-01-09T10:45:41.127Z,91285.86
2019-01-09T10:48:30.261Z,91282.36
2019-01-09T10:51:19.571Z,91281.44
2019-01-09T10:54:08.707Z,91276.58
2019-01-09T10:56:57.775Z,91273.71
2019-01-09T10:59:47.921Z,91271.63
2019-01-09T11:02:37.456Z,91262.13
2019-01-09T11:05:26.725Z,91260.06
2019-01-09T11:08:16.395Z,91256.36
2019-01-09T11:11:05.848Z,91251.80
2019-01-09T11:13:55.530Z,91244.27
2019-01-09T11:16:44.806Z,91245.80
2019-01-09T11:19:33.711Z,91237.94
2019-01-09T11:22:23.019Z,91232.62
2019-01-09T11:25:16.276Z,91233.68
2019-01-09T11:28:05.816Z,91220.37
2019-01-09T11:30:55.423Z,91213.71
2019-01-09T11:33:45.128Z,91208.61
2019-01-09T11:36:34.194Z,91197.30
2019-01-09T11:39:23.497Z,91192.33
2019-01-09T11:42:13.124Z,91187.08
2019-01-09T11:45:02.460Z,91195.58
2019-01-09T11:47:52.159Z,91187.52
2019-01-09T11:50:41.904Z,91185.69
2019-01-09T11:53:31.273Z,91179.89
2019-01-09T11:56:20.589Z,91172.86
2019-01-09T11:59:10.199Z,91165.91
2019-01-09T12:02:00.570Z,91167.77
2019-01-09T12:04:55.125Z,91163.28
2019-01-09T12:07:53.269Z,91155.89
2019-01-09T12:10:47.822Z,91153.45
2019-01-09T12:13:49.025Z,91153.14
2019-01-09T12:16:47.012Z,91145.09
2019-01-09T12:19:34.919Z,91142.96
2019-01-09T12:22:29.660Z,91147.00
2019-01-09T12:25:19.639Z,91139.23
2019-01-09T12:28:09.237Z,91138.64
2019-01-09T12:30:58.324Z,91139.19
2019-01-09T12:33:47.917Z,91129.94
2019-01-09T12:36:41.149Z,91133.54
2019-01-09T12:39:30.466Z,91127.55
2019-01-09T12:42:22.518Z,91126.26
2019-01-09T12:45:13.227Z,91123.80
2019-01-09T12:48:02.801Z,91127.10
2019-01-09T12:50:51.765Z,91122.73
2019-01-09T12:53:41.179Z,91114.85
2019-01-09T12:56:30.378Z,91113.60
2019-01-09T12:59:21.858Z,91113.73
2019-01-09T13:02:11.519Z,91111.96
2019-01-09T13:05:01.095Z,91113.84
2019-01-09T13:07:49.927Z,91107.48
2019-01-09T13:10:39.255Z,91112.15
2019-01-09T13:13:29.111Z,91105.16
2019-01-09T13:16:17.887Z,91104.61
2019-01-09T13:19:07.202Z,91103.81
2019-01-09T13:21:56.462Z,91102.53
2019-01-09T13:24:55.494Z,91094.27
2019-01-09T13:27:44.828Z,91086.42
2019-01-09T13:30:33.562Z,91091.23
2019-01-09T13:33:22.803Z,91087.88
2019-01-09T13:36:12.484Z,91087.16
2019-01-09T13:39:01.550Z,91083.89
2019-01-09T13:41:50.943Z,91074.83
2019-01-09T13:44:40.470Z,91073.32
2019-01-09T13:47:29.527Z,91067.02
2019-01-09T13:50:19.315Z,91065.38
2019-01-09T13:53:07.899Z,91068.22
2019-01-09T13:55:57.317Z,91052.94
2019-01-09T13:58:46.313Z,91053.76
2019-01-09T14:01:35.089Z,91052.91
2019-01-09T14:04:24.415Z,91047.27
2019-01-09T14:07:13.680Z,91036.97
2019-01-09T14:10:03.082Z,91025.21
2019-01-09T14:12:52.606Z,91024.64
2019-01-09T14:15:41.603Z,91029.89
2019-01-09T14:18:30.636Z,91024.43
2019-01-09T14:21:19.826Z,91021.27
2019-01-09T14:24:09.188Z,91014.05
2019-01-09T14:26:58.873Z,91015.36
2019-01-09T14:29:48.307Z,91007.72
2019-01-09T14:32:38.072Z,91002.98
2019-01-09T14:35:09.256Z,91007.72
2019-01-09T14:37:40.115Z,90999.52
2019-01-09T14:40:15.323Z,91002.55
2019-01-09T14:42:46.182Z,90994.54
2019-01-09T14:45:17.232Z,90992.98
2019-01-09T14:47:48.145Z,90991.01
2019-01-09T14:50:23.745Z,90997.55
2019-01-09T14:52:54.630Z,90985.13
2019-01-09T14:55:25.578Z,90980.41
2019-01-09T14:57:56.458Z,90975.70
2019-01-09T15:00:28.839Z,90980.92
2019-01-09T15:02:59.748Z,90971.38
2019-01-09T15:05:30.659Z,90959.13
2019-01-09T15:08:04.500Z,90953.15
2019-01-09T15:10:35.473Z,90942.89
2019-01-09T15:13:07.931Z,90947.01
2019-01-09T15:15:38.863Z,90945.43
2019-01-09T15:18:09.782Z,90940.72
2019-01-09T15:20:40.645Z,90944.09
2019-01-09T15:23:11.609Z,90934.89
2019-01-09T15:25:43.604Z,90933.64
2019-01-09T15:28:14.471Z,90927.71
2019-01-09T15:30:45.406Z,90924.09
2019-01-09T15:33:16.273Z,90916.25
2019-01-09T15:35:47.161Z,90915.77
2019-01-09T15:38:20.020Z,90911.50
2019-01-09T15:40:50.750Z,90904.27
2019-01-09T15:43:21.772Z,90901.77
2019-01-09T15:45:52.786Z,90902.23
2019-01-09T15:48:23.697Z,90904.56
2019-01-09T15:50:54.624Z,90895.94
2019-01-09T15:53:25.529Z,90892.66
2019-01-09T15:55:56.415Z,90889.02
2019-01-09T15:58:27.637Z,90891.70
2019-01-09T16:00:59.187Z,90880.73
2019-01-09T16:03:30.059Z,90878.23
2019-01-09T16:06:01.102Z,90874.31
2019-01-09T16:08:32.030Z,90873.52
2019-01-09T16:11:04.474Z,90866.93
2019-01-09T16:13:35.473Z,90865.81
2019-01-09T16:16:06.877Z,90859.56
2019-01-09T16:18:37.735Z,90861.03
2019-01-09T16:21:08.619Z,90861.21
2019-01-09T16:23:39.528Z,90857.59
2019-01-09T16:26:10.412Z,90847.45
2019-01-09T16:28:41.319Z,90843.90
2019-01-09T16:31:19.413Z,90837.64
2019-01-09T16:33:50.330Z,90838.19
2019-01-09T16:36:21.274Z,90833.52
2019-01-09T16:38:52.181Z,90839.02
2019-01-09T16:41:23.045Z,90822.66
2019-01-09T16:43:53.980Z,90826.16
2019-01-09T16:46:25.057Z,90823.51
2019-01-09T16:48:56.034Z,90821.05
2019-01-09T16:51:26.913Z,90815.99
2019-01-09T16:53:57.850Z,90815.05
2019-01-09T16:56:28.726Z,90810.38
2019-01-09T16:58:59.602Z,90811.80
2019-01-09T17:01:30.557Z,90807.54
2019-01-09T17:04:01.463Z,90798.27
2019-01-09T17:06:33.387Z,90804.10
2019-01-09T17:09:06.158Z,90797.45
2019-01-09T17:11:37.030Z,90792.55
2019-01-09T17:14:08.021Z,90792.98
2019-01-09T17:16:38.939Z,90794.39
2019-01-09T17:19:10.198Z,90790.80
2019-01-09T17:21:41.072Z,90778.69
2019-01-09T17:24:11.980Z,90783.70
2019-01-09T17:26:42.860Z,90775.84
2019-01-09T17:29:13.775Z,90776.25
2019-01-09T17:31:44.727Z,90773.23
2019-01-09T17:34:15.600Z,90773.20
2019-01-09T17:36:46.475Z,90761.50
2019-01-09T17:39:17.387Z,90761.61
2019-01-09T17:41:48.259Z,90756.08
2019-01-09T17:44:19.151Z,90755.75
2019-01-09T17:46:50.118Z,90756.91
2019-01-09T17:49:20.992Z,90751.06
2019-01-09T17:51:52.246Z,90752.53
2019-01-09T17:54:23.208Z,90743.46
2019-01-09T17:56:54.080Z,90735.72
2019-01-09T17:59:25.134Z,90733.60
2019-01-09T18:01:56.743Z,90740.54
2019-01-09T18:04:27.626Z,90737.09
2019-01-09T18:06:58.804Z,90735.67
2019-01-09T18:09:29.766Z,90731.70
2019-01-09T18:12:01.104Z,90726.41
2019-01-09T18:14:34.566Z,90728.04
2019-01-09T18:17:05.596Z,90723.30
2019-01-09T18:19:36.479Z,90719.59
2019-01-09T18:22:07.713Z,90718.33
2019-01-09T18:24:38.609Z,90718.01
2019-01-09T18:27:09.490Z,90712.61
2019-01-09T18:29:40.359Z,90709.50
2019-01-09T18:32:41.264Z,90704.21
2019-01-09T18:35:30.055Z,90705.03
2019-01-09T18:38:37.779Z,90700.28
2019-01-09T18:41:18.235Z,90693.19
2019-01-09T18:44:13.377Z,90698.70
2019-01-09T18:47:17.242Z,90690.73
2019-01-09T18:50:47.054Z,90681.03
2019-01-09T18:53:32.125Z,90687.30
2019-01-09T18:56:03.066Z,90687.30
2019-01-09T18:58:33.960Z,90683.05
2019-01-09T19:01:05.361Z,90682.69
2019-01-09T19:03:36.393Z,90680.48
2019-01-09T19:06:09.544Z,90678.66
2019-01-09T19:08:40.639Z,90678.95
2019-01-09T19:11:12.655Z,90673.48
2019-01-09T19:13:43.656Z,90665.44
2019-01-09T19:16:44.518Z,90666.84
2019-01-09T19:19:17.002Z,90665.69
2019-01-09T19:21:48.360Z,90665.33
2019-01-09T19:24:19.421Z,90656.98
2019-01-09T19:26:50.402Z,90655.84
2019-01-09T19:29:21.380Z,90653.84
2019-01-09T19:31:52.472Z,90649.27
2019-01-09T19:34:23.353Z,90651.45
2019-01-09T19:36:54.418Z,90650.31
2019-01-09T19:39:25.540Z,90653.05
2019-01-09T19:41:56.423Z,90652.45
2019-01-09T19:44:27.580Z,90650.58
2019-01-09T19:46:58.492Z,90645.18
2019-01-09T19:49:29.588Z,90641.17
2019-01-09T19:52:01.216Z,90636.63
2019-01-09T19:54:32.119Z,90639.02
2019-01-09T19:57:03.107Z,90637.70
2019-01-09T19:59:34.273Z,90632.27
2019-01-09T20:02:05.602Z,90634.39
2019-01-09T20:04:36.598Z,90634.85
2019-01-09T20:07:07.588Z,90632.88
2019-01-09T20:09:38.653Z,90629.65
2019-01-09T20:12:09.913Z,90620.47
2019-01-09T20:14:44.324Z,90628.88
2019-01-09T20:17:15.300Z,90625.06
2019-01-09T20:19:46.625Z,90625.00
2019-01-09T20:22:17.650Z,90617.46
2019-01-09T20:24:48.548Z,90617.98
2019-01-09T20:27:19.466Z,90622.94
2019-01-09T20:29:50.580Z,90618.37
2019-01-09T20:32:21.952Z,90630.38
2019-01-09T20:34:52.817Z,90618.58
2019-01-09T20:37:23.766Z,90622.47
2019-01-09T20:39:54.914Z,90623.45
2019-01-09T20:42:25.781Z,90619.73
2019-01-09T20:44:56.837Z,90614.27
2019-01-09T20:47:27.797Z,90611.63
2019-01-09T20:49:58.697Z,90609.91
2019-01-09T20:52:35.725Z,90613.64
2019-01-09T20:55:07.933Z,90609.16
2019-01-09T20:57:39.095Z,90608.23
2019-01-09T21:00:30.366Z,90617.87
2019-01-09T21:03:21.300Z,90617.22
2019-01-09T21:06:11.034Z,90624.31
2019-01-09T21:09:00.334Z,90623.83
2019-01-09T21:11:50.932Z,90623.98
2019-01-09T21:14:40.286Z,90622.61
2019-01-09T21:17:30.060Z,90622.67
2019-01-09T21:20:20.326Z,90610.79
2019-01-09T21:23:09.769Z,90605.78
2019-01-09T21:25:59.126Z,90613.89
2019-01-09T21:28:48.751Z,90608.06
2019-01-09T21:31:38.513Z,90610.00
2019-01-09T21:34:27.830Z,90611.28
2019-01-09T21:37:17.051Z,90606.32
2019-01-09T21:40:08.940Z,90612.46
2019-01-09T21:42:58.562Z,90616.91
2019-01-09T21:45:47.991Z,90613.29
2019-01-09T21:48:37.941Z,90626.22
2019-01-09T21:51:27.652Z,90620.88
2019-01-09T21:54:00.173Z,90618.86
2019-01-09T21:56:31.452Z,90623.61
2019-01-09T21:59:02.992Z,90618.06
2019-01-09T22:01:33.819Z,90626.37
2019-01-09T22:04:04.699Z,90617.81
2019-01-09T22:06:35.659Z,90622.73
2019-01-09T22:09:08.364Z,90625.70
2019-01-09T22:11:39.225Z,90624.00
2019-01-09T22:14:10.495Z,90628.33
2019-01-09T22:16:41.364Z,90621.22
2019-01-09T22:19:12.412Z,90627.12
2019-01-09T22:21:43.318Z,90624.39
2019-01-09T22:24:14.170Z,90635.23
2019-01-09T22:26:45.030Z,90631.23
2019-01-09T22:29:15.952Z,90632.73
2019-01-09T22:31:46.917Z,90641.03
2019-01-09T22:34:17.785Z,90638.64
2019-01-09T22:36:48.714Z,90647.09
2019-01-09T22:39:19.572Z,90633.50
2019-01-09T22:41:50.437Z,90630.75
2019-01-09T22:44:21.345Z,90624.61
2019-01-09T22:46:52.208Z,90631.16
2019-01-09T22:49:23.081Z,90642.73
2019-01-09T22:51:54.063Z,90642.38
2019-01-09T22:54:24.921Z,90632.08
2019-01-09T22:56:55.878Z,90635.09
2019-01-09T22:59:26.780Z,90641.78
2019-01-09T23:01:58.130Z,90640.53
2019-01-09T23:04:28.980Z,90641.13
2019-01-09T23:07:00.978Z,90638.20
2019-01-09T23:09:31.829Z,90650.28
2019-01-09T23:12:02.918Z,90649.66
2019-01-09T23:14:34.116Z,90640.86
2019-01-09T23:17:05.078Z,90652.22
2019-01-09T23:19:36.089Z,90651.39
2019-01-09T23:22:07.266Z,90654.84
2019-01-09T23:24:38.335Z,90642.94
2019-01-09T23:27:09.308Z,90645.74
2019-01-09T23:29:40.272Z,90642.23
2019-01-09T23:32:11.297Z,90639.72
2019-01-09T23:34:42.318Z,90637.70
2019-01-09T23:37:13.194Z,90646.12
2019-01-09T23:39:44.692Z,90646.19
2019-01-09T23:42:16.276Z,90635.93
2019-01-09T23:44:48.301Z,90643.51
2019-01-09T23:47:19.252Z,90639.11
2019-01-09T23:49:50.427Z,90640.89
2019-01-09T23:52:21.429Z,90647.30
2019-01-09T23:54:52.537Z,90651.45
2019-01-09T23:57:23.444Z,90648.95
2019-01-09T23:59:54.303Z,90644.64
